DRI Storm Peak Lab. Weather observations

Data are for 5 minute period ending at time listed.
 Day   Time    Ave.   Ave.  Ave.  Vector  Max.   Total    Baro.    Solar      Aerosol      Ave.  Ultrafine   Snow  
  of    of     Air    Rel.  Wind   Wind   Wind  Precip.   Pres.  Radiation   Aerosol      Ozone   Aerosol    Depth 
Year   Day     Temp.  Hum.  Speed  Dir.   Gust                               Ave.   Max.            Ave.           
2014   (MST)    F      %     mph   deg.    mph    in.      mb.     w/m2         #/cm3      ppbv    #/cm3      in.  
-------------------------------------------------------------------------------------------------------------------
 241    0:00   42.9    93    9.8   286    12.8   999.00    696.6      0.0    -1432       0   999.0        0     0.0
 241    0:05   42.7    93    8.9   289    13.5   999.00    696.6      0.0    -1432       0   999.0        0     0.0
 241    0:10   42.8    93    9.9   290    11.8   999.00    696.5      0.0    -1432       0   999.0        0     0.0
 241    0:15   42.8    93    8.9   289    12.2   999.00    696.5      0.0    -1432       0   999.0        0     0.0
 241    0:20   42.8    93    8.5   294    10.2   999.00    696.4      0.0    -1432       0   999.0        0     0.0
 241    0:25   42.7    93    9.6   290    12.8   999.00    696.4      0.0    -1432       0   999.0        0     0.0
 241    0:30   42.6    93   10.6   285    12.8   999.00    696.3      0.0    -1432       0   999.0        0     0.0
 241    0:35   42.6    93   11.0   289    13.3   999.00    696.4      0.0    -1432       0   999.0        0     0.0
 241    0:40   42.6    93   10.1   289    12.2   999.00    696.3      0.0    -1432       0   999.0        0     0.0
 241    0:45   42.4    94    9.8   290    12.6   999.00    696.4      0.0    -1432       0   999.0        0     0.0
 241    0:50   42.3    94   10.3   288    12.4   999.00    696.4      0.0    -1432       0   999.0        0     0.0
 241    0:55   42.3    94    9.7   290    12.2   999.00    696.4      0.0    -1432       0   999.0        0     0.0
 241    1:00   42.5    94   11.1   292    13.5   999.00    696.3      0.0    -1432       0   999.0        0     0.0
 241    1:05   42.4    94   11.2   290    13.2   999.00    696.2      0.0    -1432       0   999.0        0     0.0
 241    1:10   42.4    94   10.2   292    11.8   999.00    696.3      0.0    -1432       0   999.0        0     0.0
 241    1:15   42.3    94    9.4   289    11.3   999.00    696.3      0.0    -1433       0   999.0        0     0.0
 241    1:20   42.2    94    9.3   293    11.7   999.00    696.3      0.0    -1432       0   999.0        0     0.0
 241    1:25   42.2    93   10.4   290    11.7   999.00    696.3      0.0    -1433       0   999.0        0     0.0
 241    1:30   42.3    93   11.4   286    13.7   999.00    696.3      0.0    -1433       0   999.0        0     0.0
 241    1:35   42.2    93   10.5   294    12.0   999.00    696.3      0.0    -1433       0   999.0        0     0.0
 241    1:40   42.3    93   10.2   295    12.4   999.00    696.4      0.0    -1433       0   999.0        0     0.0
 241    1:45   42.3    94    9.9   296    11.7   999.00    696.4      0.0    -1433       0   999.0        0     0.0
 241    1:50   42.2    94   10.2   291    12.2   999.00    696.3      0.0    -1433       0   999.0        0     0.0
 241    1:55   42.2    94   10.1   289    12.2   999.00    696.3      0.0    -1433       0   999.0        0     0.0
 241    2:00   42.2    94    9.5   288    11.3   999.00    696.3      0.0    -1433       0   999.0        0     0.0
 241    2:05   42.2    94    9.6   288    11.3   999.00    696.2      0.0    -1433       0   999.0        0     0.0
 241    2:10   42.1    94    9.6   288    11.8   999.00    696.2      0.0    -1433       0   999.0        0     0.0
 241    2:15   42.0    95    9.8   285    11.1   999.00    696.2      0.0    -1433       0   999.0        0     0.0
 241    2:20   41.9    95    9.8   288    12.2   999.00    696.2      0.0    -1434       0   999.0        0     0.0
 241    2:25   42.0    95    9.1   287    11.8   999.00    696.2      0.0    -1434       0   999.0        0     0.0
 241    2:30   42.0    96    9.3   279    12.4   999.00    696.2      0.0    -1434       0   999.0        0     0.0
 241    2:35   42.0    95    8.5   279    10.0   999.00    696.2      0.0    -1434       0   999.0        0     0.0
 241    2:40   41.9    95    8.1   282     9.6   999.00    696.2      0.0    -1434       0   999.0        0     0.0
 241    2:45   41.9    96    8.6   282    11.1   999.00    696.2      0.0    -1434       0   999.0        0     0.0
 241    2:50   42.0    96    8.8   288    10.2   999.00    696.2      0.0    -1433       0   999.0        0     0.0
 241    2:55   42.0    96    8.6   290    10.4   999.00    696.2      0.0    -1434       0   999.0        0     0.0
 241    3:00   42.0    96    8.7   294     9.8   999.00    696.2      0.0    -1434       0   999.0        0     0.0
 241    3:05   42.0    96    9.0   291    10.6   999.00    696.1      0.0    -1434       0   999.0        0     0.0
 241    3:10   41.9    96    8.7   288    10.2   999.00    696.2      0.0    -1434       0   999.0        0     0.0
 241    3:15   41.9    96    8.4   287    10.2   999.00    696.2      0.0    -1434       0   999.0        0     0.0
 241    3:20   41.9    97    7.9   292     9.2   999.00    696.2      0.0    -1435       0   999.0        0     0.0
 241    3:25   41.8    97    7.8   294     9.1   999.00    696.2      0.0    -1435       0   999.0        0     0.0
 241    3:30   41.8    97    7.8   296     9.1   999.00    696.2      0.0    -1434       0   999.0        0     0.0
 241    3:35   41.8    97    7.8   301     8.7   999.00    696.2      0.0    -1434       0   999.0        0     0.0
 241    3:40   41.8    97    8.0   300     9.2   999.00    696.2      0.0    -1434       0   999.0        0     0.0
 241    3:45   41.8    97    8.4   302     9.4   999.00    696.2      0.0    -1435       0   999.0        0     0.0
 241    3:50   41.7    98    9.1   303     9.8   999.00    696.1      0.0    -1434       0   999.0        0     0.0
 241    3:55   41.7    98    8.3   295     9.6   999.00    696.1      0.0    -1435       0   999.0        0     0.0
 241    4:00   41.6    98    7.8   292     9.6   999.00    696.1      0.0    -1435       0   999.0        0     0.0
 241    4:05   41.5    98    7.3   289     7.9   999.00    696.1      0.0    -1435       0   999.0        0     0.0
 241    4:10   41.4    98    8.5   287    10.9   999.00    696.1      0.0    -1435       0   999.0        0     0.0
 241    4:15   41.4    99    8.3   289    10.0   999.00    696.1      0.0    -1435       0   999.0        0     0.0
 241    4:20   41.4    99    8.3   293     9.1   999.00    696.0      0.0    -1435       0   999.0        0     0.0
 241    4:25   41.4    99    8.8   292    10.4   999.00    696.1      0.0    -1435       0   999.0        0     0.0
 241    4:30   41.4    99    8.2   286     9.4   999.00    696.1      0.0    -1435       0   999.0        0     0.0
 241    4:35   41.2   100    7.8   284     8.7   999.00    696.1      0.0    -1435       0   999.0        0     0.0
 241    4:40   41.3   100    6.9   284     7.9   999.00    696.2      0.0    -1435       0   999.0        0     0.0
 241    4:45   41.2   100    6.8   276     8.1   999.00    696.2      0.0    -1435       0   999.0        0     0.0
 241    4:50   41.3   100    7.0   267     8.1   999.00    696.2      0.0    -1435       0   999.0        0     0.0
 241    4:55   41.5   100    7.5   268     8.5   999.00    696.2      0.0    -1435       0   999.0        0     0.0
 241    5:00   41.5   100    7.9   267     9.4   999.00    696.3      0.0    -1435       0   999.0        0     0.0
 241    5:05   41.6   100    7.7   266     8.9   999.00    696.3      0.0    -1435       0   999.0        0     0.0
 241    5:10   41.5   100    7.0   261     8.3   999.00    696.4      0.0    -1435       0   999.0        0     0.0
 241    5:15   41.6   100    7.2   253     9.1   999.00    696.4      0.0    -1434       0   999.0        0     0.0
 241    5:20   41.5   100    7.4   249     9.8   999.00    696.4      0.0    -1435       0   999.0        0     0.0
 241    5:25   41.5    99    7.3   250    10.0   999.00    696.4      0.0    -1436       0   999.0        0     0.0
 241    5:30   41.5    99    7.5   250     8.9   999.00    696.5      0.0    -1436       0   999.0        0     0.0
 241    5:35   41.4    99    6.8   242     8.5   999.00    696.5      0.0    -1435       0   999.0        0     0.0
 241    5:40   41.4    99    6.6   237     8.3   999.00    696.5      0.0    -1434       0   999.0        0     0.0
 241    5:45   41.5    99    5.8   236     6.8   999.00    696.5      0.0    -1435       0   999.0        0     0.0
 241    5:50   41.4    99    6.4   224     7.6   999.00    696.6      0.0    -1435       0   999.0        0     0.0
 241    5:55   41.6    98    6.2   241     8.3   999.00    696.6      0.0    -1435       0   999.0        0     0.0
 241    6:00   41.6    98    4.8   231     6.5   999.00    696.6      0.0    -1434       0   999.0        0     0.0
 241    6:05   41.6    97    5.5   233     7.0   999.00    696.6      0.0    -1434       0   999.0        0     0.0
 241    6:10   41.5    97    5.2   233     6.8   999.00    696.6      0.0    -1434       0   999.0        0     0.0
 241    6:15   41.4    98    4.9   233     6.5   999.00    696.6      0.0    -1434       0   999.0        0     0.0
 241    6:20   41.4    97    4.6   228     6.1   999.00    696.6      0.0    -1434       0   999.0        0     0.0
 241    6:25   41.4    97    5.1   231     7.6   999.00    696.7      0.0    -1434       0   999.0        0     0.0
 241    6:30   41.5    97    4.2   221     5.5   999.00    696.7      0.0    -1434       0   999.0        0     0.0
 241    6:35   41.6    96    4.4   218     5.9   999.00    696.7      0.0    -1434       0   999.0        0     0.0
 241    6:40   41.7    96    4.3   220     5.9   999.00    696.7      0.0    -1434       0   999.0        0     0.0
 241    6:45   41.8    96    4.2   223     5.5   999.00    696.7      0.0    -1434       0   999.0        0     0.0
 241    6:50   41.9    96    3.9   222     4.6   999.00    696.7      0.0    -1434       0   999.0        0     0.0
 241    6:55   42.0    95    4.4   222     6.1   999.00    696.8      0.0    -1434       0   999.0        0     0.0
 241    7:00   42.0    95    4.9   222     5.9   999.00    696.8      0.0    -1434       0   999.0        0     0.0
 241    7:05   42.1    94    2.2   219     3.7   999.00    696.8      0.0    -1433       0   999.0        0     0.0
 241    7:10   42.2    95    3.4   227     5.9   999.00    696.7      0.0    -1433       0   999.0        0     0.0
 241    7:15   42.2    95    6.2   230     7.4   999.00    696.7      0.0    -1433       0   999.0        0     0.0
 241    7:20   42.4    94    4.3   225     6.3   999.00    696.7      0.0    -1433       0   999.0        0     0.0
 241    7:25   42.5    93    4.6   232     6.6   999.00    696.7      0.0    -1433       0   999.0        0     0.0
 241    7:30   42.4    94    5.3   232     7.0   999.00    696.7      0.0    -1433       0   999.0        0     0.0
 241    7:35   42.7    94    2.2   195     4.4   999.00    696.7      0.0    -1433       0   999.0        0     0.0
 241    7:40   43.4    90    2.5   199     3.5   999.00    696.7      0.0    -1433       0   999.0        0     0.0
 241    7:45   43.4    89    2.8   208     3.7   999.00    696.7      0.0    -1433       0   999.0        0     0.0
 241    7:50   43.3    91    2.6   206     4.0   999.00    696.8      0.0    -1433       0   999.0        0     0.0
 241    7:55   43.6    90    3.0   204     4.2   999.00    696.8      0.0    -1433       0   999.0        0     0.0
 241    8:00   43.3    91    3.3   201     4.4   999.00    696.8      0.0    -1433       0   999.0        0     0.0
 241    8:05   43.2    91    3.4   200     4.8   999.00    696.7      0.0    -1432       0   999.0        0     0.0
 241    8:10   43.3    91    3.2   206     6.5   999.00    696.7      0.0    -1432       0   999.0        0     0.0
 241    8:15   43.6    90    2.7   215     3.5   999.00    696.8      0.0    -1432       0   999.0        0     0.0
 241    8:20   43.5    90    2.5   236     4.2   999.00    696.8      0.0    -1432       0   999.0        0     0.0
 241    8:25   43.4    89    2.5   230     3.8   999.00    696.8      0.0    -1432       0   999.0        0     0.0
 241    8:30   44.0    87    4.1   236     5.3   999.00    696.9      0.0    -1432       0   999.0        0     0.0
 241    8:35   43.7    88    2.9   239     4.4   999.00    696.9      0.0    -1432       0   999.0        0     0.0
 241    8:40   43.9    87    2.1   236     3.7   999.00    697.0      0.0    -1432       0   999.0        0     0.0
 241    8:45   44.2    87    2.0   234     3.3   999.00    697.1      0.0    -1432       0   999.0        0     0.0
 241    8:50   44.4    87    3.2   241     5.0   999.00    697.0      0.0    -1432       0   999.0        0     0.0
 241    8:55   44.5    87    2.6   253     5.2   999.00    697.1      0.0    -1432       0   999.0        0     0.0
 241    9:00   44.2    87    2.9   250     5.7   999.00    697.0      0.0    -1432       0   999.0        0     0.0
 241    9:05   44.6    86    3.0   254     4.4   999.00    697.1      0.0    -1432       0   999.0        0     0.0
 241    9:10   44.9    85    3.3   274     4.8   999.00    697.1      0.0    -1432       0   999.0        0     0.0
 241    9:15   44.9    87    3.1   276     5.2   999.00    697.1      0.0    -1432       0   999.0        0     0.0
 241    9:20   45.4    86    2.9   274     3.7   999.00    697.1      0.0    -1432       0   999.0        0     0.0
 241    9:25   45.3    84    2.5   277     4.4   999.00    697.1      0.0    -1432       0   999.0        0     0.0
 241    9:30   45.0    84    2.3   275     3.7   999.00    697.1      0.0    -1432       0   999.0        0     0.0
 241    9:35   45.3    81    2.1   285     3.1   999.00    697.1      0.0    -1432       0   999.0        0     0.0
 241    9:40   46.3    84    2.2   305     3.5   999.00    697.1      0.0    -1431       0   999.0        0     0.0
 241    9:45   46.2    81    2.4   296     3.8   999.00    697.1      0.0    -1431       0   999.0        0     0.0
 241    9:50   46.5    82    3.2   289     4.0   999.00    697.2      0.0    -1431       0   999.0        0     0.0
 241    9:55   46.5    81    2.9   286     4.2   999.00    697.2      0.0    -1431       0   999.0        0     0.0
 241   10:00   46.7    84    3.7   286     5.0   999.00    697.2      0.0    -1431       0   999.0        0     0.0
 241   10:05   46.5    83    4.2   273     6.6   999.00    697.2      0.0    -1431       0   999.0        0     0.0
 241   10:10   46.2    84    3.3   277     4.8   999.00    697.2      0.0    -1431       0   999.0        0     0.0
 241   10:15   46.6    84    2.8   287     5.0   999.00    697.2      0.0    -1431       0   999.0        0     0.0
 241   10:20   46.8    82    3.1   290     4.4   999.00    697.3      0.0    -1431       0   999.0        0     0.0
 241   10:25   46.3    80    3.2   299     5.5   999.00    697.3      0.0    -1430       0   999.0        0     0.0
 241   10:30   46.7    82    2.1   284     4.0   999.00    697.3      0.0    -1430       0   999.0        0     0.0
 241   10:35   47.2    85    2.7   286     5.3   999.00    697.3      0.0    -1429       0   999.0        0     0.0
 241   10:40   47.3    80    2.6   292     3.7   999.00    697.2      0.0    -1429       0   999.0        0     0.0
 241   10:45   47.3    81    2.6   319     4.2   999.00    697.2      0.0    -1429       0   999.0        0     0.0
 241   10:50   47.0    82    2.5   320     3.3   999.00    697.2      0.0    -1429       0   999.0        0     0.0
 241   10:55   47.8    79    2.2   313     5.3   999.00    697.3      0.0    -1429       0   999.0        0     0.0
 241   11:00   47.3    82    2.5   303     4.2   999.00    697.3      0.0    -1429       0   999.0        0     0.0
 241   11:05   47.4    80    3.7   307     5.3   999.00    697.3      0.0    -1428       0   999.0        0     0.0
 241   11:10   47.1    78    2.1   304     3.8   999.00    697.2      0.0    -1428       0   999.0        0     0.0
 241   11:15   47.7    79    2.3   292     4.0   999.00    697.2      0.0    -1428       0   999.0        0     0.0
 241   11:20   48.7    77    3.3   291     5.2   999.00    697.2      0.0    -1428       0   999.0        0     0.0
 241   11:25   48.8    75    2.2   281     3.1   999.00    697.1      0.0    -1428       0   999.0        0     0.0
 241   11:30   49.6    76    3.0   293     6.5   999.00    697.1      0.0    -1427       0   999.0        0     0.0
 241   11:35   49.0    78    4.4   246     8.3   999.00    697.1      0.0    -1427       0   999.0        0     0.0
 241   11:40   49.2    77    3.0   270     6.1   999.00    697.1      0.0    -1427       0   999.0        0     0.0
 241   11:45   48.6    82    3.6   264     6.1   999.00    697.0      0.0    -1427       0   999.0        0     0.0
 241   11:50   48.8    78    2.8   298     4.2   999.00    697.0      0.0    -1427       0   999.0        0     0.0
 241   11:55   48.3    79    3.2   301     5.5   999.00    697.0      0.0    -1427       0   999.0        0     0.0
 241   12:00   49.3    78    3.9   281     7.4   999.00    696.9      0.0    -1426       0   999.0        0     0.0
 241   12:05   49.2    76    4.8   285     7.2   999.00    696.9      0.0    -1426       0   999.0        0     0.0
 241   12:10   49.2    76    4.8   277     7.4   999.00    696.9      0.0    -1426       0   999.0        0     0.0
 241   12:15   48.9    77    5.2   270    10.6   999.00    696.8      0.0    -1426       0   999.0        0     0.0
 241   12:20   49.8    78    4.1   260    12.2   999.00    696.9      0.0    -1426       0   999.0        0     0.0
 241   12:25   51.5    75    5.4   288     9.1   999.00    696.8      0.0    -1426       0   999.0        0     0.0
 241   12:30   50.5    78    4.6   255    12.6   999.00    696.9      0.0    -1426       0   999.0        0     0.0
 241   12:35   49.6    81    3.8   260     9.6   999.00    696.9      0.0    -1426       0   999.0        0     0.0
 241   12:40   49.6    77    6.4   269    13.2   999.00    696.8      0.0    -1425       0   999.0        0     0.0
 241   12:45   48.0    78    6.9   273    14.4   999.00    696.8      0.0    -1425       0   999.0        0     0.0
 241   12:50   48.4    81    6.1   283     9.2   999.00    696.8      0.0    -1425       0   999.0        0     0.0
 241   12:55   48.5    81    4.6   268    12.6   999.00    696.8      0.0    -1425       0   999.0        0     0.0
 241   13:00   48.7    80    2.4   279     5.5   999.00    696.7      0.0    -1425       0   999.0        0     0.0
 241   13:05   48.2    80    6.2   272    11.8   999.00    696.6      0.0    -1424       0   999.0        0     0.0
 241   13:10   47.7    82    8.9   253    14.1   999.00    696.7      0.0    -1423       0   999.0        0     0.0
 241   13:15   47.2    86    5.5   281    11.7   999.00    696.7      0.0    -1423       0   999.0        0     0.0
 241   13:20   47.0    84    9.6   281    13.0   999.00    696.7      0.0    -1423       0   999.0        0     0.0
 241   13:25   46.9    85    5.2   304     8.5   999.00    696.6      0.0    -1423       0   999.0        0     0.0
 241   13:30   46.7    87    6.0   301    10.2   999.00    696.5      0.0    -1422       0   999.0        0     0.0
 241   13:35   46.7    83    5.5   297     9.6   999.00    696.4      0.0    -1422       0   999.0        0     0.0
 241   13:40   48.1    79    6.6   307     9.4   999.00    696.4      0.0    -1422       0   999.0        0     0.0
 241   13:45   50.1    74    6.6   308     9.2   999.00    696.3      0.0    -1422       0   999.0        0     0.0
 241   13:50   50.3    69    8.6   299    11.8   999.00    696.2      0.0    -1421       0   999.0        0     0.0
 241   13:55   51.0    71    8.5   292    12.8   999.00    696.2      0.0    -1421       0   999.0        0     0.0
 241   14:00   51.9    68    7.6   300    10.7   999.00    696.1      0.0    -1421       0   999.0        0     0.0
 241   14:05   52.3    68    8.6   300    12.8   999.00    696.2      0.0    -1421       0   999.0        0     0.0
 241   14:10   52.3    66    9.8   302    14.4   999.00    696.3      0.0    -1421       0   999.0        0     0.0
 241   14:15   52.2    66    9.2   299    13.9   999.00    696.3      0.0    -1421       0   999.0        0     0.0
 241   14:20   52.8    66    7.8   283    13.0   999.00    696.3      0.0    -1421       0   999.0        0     0.0
 241   14:25   52.8    66    8.4   288    14.8   999.00    696.3      0.0    -1421       0   999.0        0     0.0
 241   14:30   53.0    68    6.3   287    11.1   999.00    696.1      0.0    -1420       0   999.0        0     0.0
 241   14:35   51.0    68    6.9   297    12.8   999.00    696.1      0.0    -1420       0   999.0        0     0.0
 241   14:40   50.5    68    9.4   275    13.9   999.00    696.1      0.0    -1420       0   999.0        0     0.0
 241   14:45   50.6    70    7.2   293    12.8   999.00    696.1      0.0    -1419       0   999.0        0     0.0
 241   14:50   50.9    71    5.6   294     8.7   999.00    696.0      0.0    -1419       0   999.0        0     0.0
 241   14:55   52.6    67   10.4   252    15.0   999.00    695.9      0.0    -1419       0   999.0        0     0.0
 241   15:00   52.2    67    8.3   278    13.9   999.00    696.0      0.0    -1417       0   999.0        0     0.0
 241   15:05   52.8    65   10.4   285    14.6   999.00    695.9      0.0    -1417       0   999.0        0     0.0
 241   15:10   53.1    66    8.2   287    12.4   999.00    695.9      0.0    -1416       0   999.0        0     0.0
 241   15:15   53.3    64    9.7   276    13.2   999.00    695.9      0.0    -1416       0   999.0        0     0.0
 241   15:20   53.6    65    6.1   288    10.4   999.00    695.8      0.0    -1415       0   999.0        0     0.0
 241   15:25   53.5    63    7.8   292    12.4   999.00    695.9      0.0    -1415       0   999.0        0     0.0
 241   15:30   53.7    65    8.3   284    11.8   999.00    695.9      0.0    -1415       0   999.0        0     0.0
 241   15:35   53.8    64    7.8   300    11.7   999.00    695.8      0.0    -1415       0   999.0        0     0.0
 241   15:40   51.8    66    8.9   289    11.1   999.00    695.9      0.0    -1414       0   999.0        0     0.0
 241   15:45   51.2    67    6.7   286    10.6   999.00    695.9      0.0    -1414       0   999.0        0     0.0
 241   15:50   51.4    68    7.1   311    10.0   999.00    695.8      0.0    -1414       0   999.0        0     0.0
 241   15:55   51.4    71    5.5   304     8.7   999.00    695.9      0.0    -1413       0   999.0        0     0.0
 241   16:00   50.9    69    7.0   306     9.2   999.00    695.9      0.0    -1411       0   999.0        0     0.0
 241   16:05   50.3    70    6.9   301     9.1   999.00    696.0      0.0    -1411       0   999.0        0     0.0
 241   16:10   50.3    69    6.5   290     9.2   999.00    696.0      0.0    -1411       0   999.0        0     0.0
 241   16:15   50.3    70    5.6   302     8.7   999.00    696.0      0.0    -1411       0   999.0        0     0.0
 241   16:20   50.3    69    9.5   296    13.5   999.00    696.0      0.0    -1411       0   999.0        0     0.0
 241   16:25   50.5    68    8.3   283    10.4   999.00    696.0      0.0    -1410       0   999.0        0     0.0
 241   16:30   50.7    66    8.4   283    11.8   999.00    696.0      0.0    -1410       0   999.0        0     0.0
 241   16:35   50.4    69   10.5   300    13.7   999.00    695.9      0.0    -1410       0   999.0        0     0.0
 241   16:40   48.7    77   10.3   297    15.2   999.00    696.0      0.0    -1410       0   999.0        0     0.0
 241   16:45   47.9    74    9.0   296    11.3   999.00    695.8      0.0    -1410       0   999.0        0     0.0
 241   16:50   48.7    72    9.9   305    12.8   999.00    695.8      0.0    -1409       0   999.0        0     0.0
 241   16:55   49.2    72   10.4   304    12.4   999.00    695.8      0.0    -1409       0   999.0        0     0.0
 241   17:00   49.5    72   11.1   308    13.0   999.00    695.8      0.0    -1409       0   999.0        0     0.0
 241   17:05   49.7    72    9.7   307    12.6   999.00    695.9      0.0    -1409       0   999.0        0     0.0
 241   17:10   49.7    73    7.7   288    10.2   999.00    695.9      0.0    -1409       0   999.0        0     0.0
 241   17:15   49.8    70    8.5   286    12.2   999.00    696.0      0.0    -1410       0   999.0        0     0.0
 241   17:20   50.5    67   10.1   272    13.9   999.00    696.0      0.0    -1409       0   999.0        0     0.0
 241   17:25   51.0    68   10.4   270    16.3   999.00    696.0      0.0    -1409       0   999.0        0     0.0
 241   17:30   51.3    67    9.3   265    13.0   999.00    696.0      0.0    -1409       0   999.0        0     0.0
 241   17:35   51.3    67    9.2   274    12.4   999.00    696.0      0.0    -1409       0   999.0        0     0.0
 241   17:40   51.3    66    9.9   261    15.0   999.00    696.0      0.0    -1409       0   999.0        0     0.0
 241   17:45   51.1    65   12.3   263    17.2   999.00    696.1      0.0    -1409       0   999.0        0     0.0
 241   17:50   50.8    64   11.7   272    16.5   999.00    696.0      0.0    -1409       0   999.0        0     0.0
 241   17:55   50.5    64   10.9   272    14.1   999.00    696.0      0.0    -1409       0   999.0        0     0.0
 241   18:00   50.5    64   10.6   270    15.0   999.00    696.1      0.0    -1409       0   999.0        0     0.0
 241   18:05   50.2    63   11.5   271    15.0   999.00    696.0      0.0    -1409       0   999.0        0     0.0
 241   18:10   50.2    62   12.9   278    17.6   999.00    695.9      0.0    -1409       0   999.0        0     0.0
 241   18:15   50.0    63   12.2   282    17.2   999.00    695.9      0.0    -1409       0   999.0        0     0.0
 241   18:20   49.8    63   11.3   282    15.4   999.00    696.0      0.0    -1409       0   999.0        0     0.0
 241   18:25   49.8    63   10.8   284    13.5   999.00    696.1      0.0    -1409       0   999.0        0     0.0
 241   18:30   49.7    64   10.6   286    13.7   999.00    696.1      0.0    -1409       0   999.0        0     0.0
 241   18:35   49.5    64   12.6   288    14.8   999.00    696.1      0.0    -1409       0   999.0        0     0.0
 241   18:40   49.4    64   11.2   296    14.4   999.00    696.1      0.0    -1409       0   999.0        0     0.0
 241   18:45   49.0    65   11.5   297    15.6   999.00    696.1      0.0    -1409       0   999.0        0     0.0
 241   18:50   49.0    65   10.6   291    13.3   999.00    696.1      0.0    -1409       0   999.0        0     0.0
 241   18:55   48.8    65   10.7   289    15.6   999.00    696.1      0.0    -1409       0   999.0        0     0.0
 241   19:00   48.7    65   10.2   289    14.8   999.00    696.0      0.0    -1409       0   999.0        0     0.0
 241   19:05   48.8    65   10.3   287    13.5   999.00    696.1      0.0    -1409       0   999.0        0     0.0
 241   19:10   48.6    66    8.8   291    11.1   999.00    696.1      0.0    -1409       0   999.0        0     0.0
 241   19:15   48.6    66    9.0   292    11.1   999.00    696.2      0.0    -1409       0   999.0        0     0.0
 241   19:20   48.5    66    8.2   289    10.0   999.00    696.2      0.0    -1410       0   999.0        0     0.0
 241   19:25   48.4    66    9.2   282    11.7   999.00    696.2      0.0    -1410       0   999.0        0     0.0
 241   19:30   48.6    65    9.3   282    11.3   999.00    696.2      0.0    -1410       0   999.0        0     0.0
 241   19:35   48.6    65    9.1   278    11.1   999.00    696.3      0.0    -1410       0   999.0        0     0.0
 241   19:40   48.5    65    8.6   274    10.4   999.00    696.3      0.0    -1410       0   999.0        0     0.0
 241   19:45   48.5    64    9.4   277    11.8   999.00    696.3      0.0    -1410       0   999.0        0     0.0
 241   19:50   48.6    63    9.4   270    12.6   999.00    696.4      0.0    -1410       0   999.0        0     0.0
 241   19:55   48.9    62   10.2   265    12.8   999.00    696.5      0.0    -1411       0   999.0        0     0.0
 241   20:00   49.0    62    8.8   264    11.5   999.00    696.5      0.0    -1411       0   999.0        0     0.0
 241   20:05   49.0    62    8.2   265    10.2   999.00    696.5      0.0    -1411       0   999.0        0     0.0
 241   20:10   49.2    62    8.6   257    10.7   999.00    696.6      0.0    -1411       0   999.0        0     0.0
 241   20:15   49.3    62    8.1   258    11.3   999.00    696.7      0.0    -1411       0   999.0        0     0.0
 241   20:20   49.3    62    8.7   253    11.3   999.00    696.8      0.0    -1411       0   999.0        0     0.0
 241   20:25   49.2    62    9.2   241    11.1   999.00    696.8      0.0    -1412       0   999.0        0     0.0
 241   20:30   49.1    62    9.8   247    12.0   999.00    696.8      0.0    -1411       0   999.0        0     0.0
 241   20:35   49.2    62    8.9   242    10.7   999.00    696.8      0.0    -1412       0   999.0        0     0.0
 241   20:40   49.3    62    8.9   229    11.5   999.00    696.8      0.0    -1412       0   999.0        0     0.0
 241   20:45   49.2    62    9.0   232    12.4   999.00    696.8      0.0    -1412       0   999.0        0     0.0
 241   20:50   49.2    62    9.8   235    12.0   999.00    696.8      0.0    -1413       0   999.0        0     0.0
 241   20:55   49.2    62   10.1   243    12.4   999.00    696.8      0.0    -1413       0   999.0        0     0.0
 241   21:00   49.3    62   11.0   243    13.5   999.00    696.8      0.0    -1413       0   999.0        0     0.0
 241   21:05   49.3    62   10.7   241    14.3   999.00    696.7      0.0    -1414       0   999.0        0     0.0
 241   21:10   49.2    62   11.8   246    15.2   999.00    696.7      0.0    -1414       0   999.0        0     0.0
 241   21:15   49.2    62   11.1   249    13.7   999.00    696.7      0.0    -1414       0   999.0        0     0.0
 241   21:20   49.0    62   11.8   253    15.6   999.00    696.8      0.0    -1414       0   999.0        0     0.0
 241   21:25   48.8    63   10.2   258    13.5   999.00    696.8      0.0    -1414       0   999.0        0     0.0
 241   21:30   48.7    64   10.6   263    17.2   999.00    696.8      0.0    -1414       0   999.0        0     0.0
 241   21:35   48.7    64   10.7   264    15.2   999.00    696.8      0.0    -1414       0   999.0        0     0.0
 241   21:40   48.6    64    9.6   257    12.8   999.00    696.8      0.0    -1414       0   999.0        0     0.0
 241   21:45   48.5    65   11.9   247    15.9   999.00    696.8      0.0    -1415       0   999.0        0     0.0
 241   21:50   48.5    65   11.3   238    13.3   999.00    696.8      0.0    -1415       0   999.0        0     0.0
 241   21:55   48.5    66   12.1   232    15.6   999.00    696.8      0.0    -1415       0   999.0        0     0.0
 241   22:00   48.2    66   11.7   229    14.4   999.00    696.8      0.0    -1415       0   999.0        0     0.0
 241   22:05   48.3    67   11.9   226    15.4   999.00    696.8      0.0    -1415       0   999.0        0     0.0
 241   22:10   48.2    66    9.8   223    13.7   999.00    696.9      0.0    -1415       0   999.0        0     0.0
 241   22:15   48.2    68   10.4   222    13.9   999.00    696.8      0.0    -1415       0   999.0        0     0.0
 241   22:20   48.0    68    9.9   226    12.2   999.00    696.8      0.0    -1415       0   999.0        0     0.0
 241   22:25   47.8    68   10.6   226    13.3   999.00    696.8      0.0    -1415       0   999.0        0     0.0
 241   22:30   47.7    69    9.8   231    12.2   999.00    696.7      0.0    -1415       0   999.0        0     0.0
 241   22:35   47.6    69   10.3   230    12.6   999.00    696.8      0.0    -1415       0   999.0        0     0.0
 241   22:40   47.5    70   10.3   225    12.4   999.00    696.7      0.0    -1415       0   999.0        0     0.0
 241   22:45   47.5    70   10.3   228    12.6   999.00    696.7      0.0    -1415       0   999.0        0     0.0
 241   22:50   47.6    70    9.7   224    11.8   999.00    696.7      0.0    -1415       0   999.0        0     0.0
 241   22:55   47.6    70   10.3   225    12.0   999.00    696.6      0.0    -1416       0   999.0        0     0.0
 241   23:00   47.5    70   10.3   227    12.2   999.00    696.6      0.0    -1416       0   999.0        0     0.0
 241   23:05   47.3    70    9.9   225    12.4   999.00    696.5      0.0    -1416       0   999.0        0     0.0
 241   23:10   47.7    70    9.8   219    11.8   999.00    696.5      0.0    -1417       0   999.0        0     0.0
 241   23:15   47.8    70   10.7   222    12.6   999.00    696.4      0.0    -1417       0   999.0        0     0.0
 241   23:20   47.5    69   10.3   224    12.2   999.00    696.4      0.0    -1417       0   999.0        0     0.0
 241   23:25   47.4    70   12.2   226    13.7   999.00    696.3      0.0    -1417       0   999.0        0     0.0
 241   23:30   47.5    69   12.7   229    14.4   999.00    696.3      0.0    -1417       0   999.0        0     0.0
 241   23:35   47.7    69   12.1   235    13.9   999.00    696.3      0.0    -1417       0   999.0        0     0.0
 241   23:40   47.6    69   12.8   234    14.3   999.00    696.3      0.0    -1417       0   999.0        0     0.0
 241   23:45   47.6    68   12.2   238    13.7   999.00    696.3      0.0    -1417       0   999.0        0     0.0
 241   23:50   47.0    68   11.7   235    13.5   999.00    696.4      0.0    -1418       0   999.0        0     0.0

Return to DRI Storm Peak Lab. graphs page.


Western Regional Climate Center,wrcc@dri.edu